createdAt,value
2023-01-23T00:01:39.111Z,-3.10
2023-01-23T00:04:07.565Z,-3.20
2023-01-23T00:06:35.805Z,-3.20
2023-01-23T00:09:04.594Z,-3.20
2023-01-23T00:11:34.562Z,-3.30
2023-01-23T00:14:03.714Z,-3.30
2023-01-23T00:16:34.466Z,-3.20
2023-01-23T00:19:02.707Z,-3.30
2023-01-23T00:21:31.566Z,-3.30
2023-01-23T00:24:02.217Z,-3.20
2023-01-23T00:26:33.318Z,-3.20
2023-01-23T00:29:03.830Z,-3.10
2023-01-23T00:31:34.261Z,-3.10
2023-01-23T00:34:04.863Z,-3.10
2023-01-23T00:36:35.573Z,-3.20
2023-01-23T00:39:06.794Z,-3.20
2023-01-23T00:41:35.367Z,-3.20
2023-01-23T00:44:05.342Z,-3.30
2023-01-23T00:46:34.946Z,-3.20
2023-01-23T00:49:03.364Z,-3.30
2023-01-23T00:51:31.935Z,-3.30
2023-01-23T00:54:00.388Z,-3.30
2023-01-23T00:56:28.909Z,-3.40
2023-01-23T00:58:57.611Z,-3.40
2023-01-23T01:01:29.327Z,-3.40
2023-01-23T01:03:57.663Z,-3.30
2023-01-23T01:06:26.787Z,-3.40
2023-01-23T01:08:55.013Z,-3.40
2023-01-23T01:11:23.255Z,-3.40
2023-01-23T01:13:51.861Z,-3.40
2023-01-23T01:16:20.497Z,-3.40
2023-01-23T01:18:50.079Z,-3.40
2023-01-23T01:21:19.693Z,-3.50
2023-01-23T01:23:47.902Z,-3.50
2023-01-23T01:26:16.018Z,-3.50
2023-01-23T01:28:44.574Z,-3.50
2023-01-23T01:31:15.127Z,-3.50
2023-01-23T01:33:44.446Z,-3.40
2023-01-23T01:36:16.363Z,-3.40
2023-01-23T01:38:44.756Z,-3.30
2023-01-23T01:41:14.423Z,-3.20
2023-01-23T01:43:43.460Z,-3.20
2023-01-23T01:46:15.144Z,-3.30
2023-01-23T01:48:56.846Z,-3.20
2023-01-23T01:51:30.983Z,-3.30
2023-01-23T01:54:07.696Z,-3.30
2023-01-23T01:56:45.971Z,-3.30
2023-01-23T01:59:15.324Z,-3.40
2023-01-23T02:01:48.659Z,-3.30
2023-01-23T02:04:17.270Z,-3.40
2023-01-23T02:06:46.998Z,-3.40
2023-01-23T02:09:20.159Z,-3.40
2023-01-23T02:11:49.893Z,-3.50
2023-01-23T02:14:18.396Z,-3.50
2023-01-23T02:16:51.404Z,-3.50
2023-01-23T02:19:33.113Z,-3.50
2023-01-23T02:22:10.697Z,-3.40
2023-01-23T02:24:47.287Z,-3.40
2023-01-23T02:27:17.216Z,-3.40
2023-01-23T02:29:48.367Z,-3.40
2023-01-23T02:32:16.768Z,-3.40
2023-01-23T02:34:45.235Z,-3.50
2023-01-23T02:37:14.582Z,-3.60
2023-01-23T02:39:42.703Z,-3.60
2023-01-23T02:42:11.434Z,-3.70
2023-01-23T02:44:41.268Z,-3.70
2023-01-23T02:47:12.506Z,-3.70
2023-01-23T02:49:42.858Z,-3.70
2023-01-23T02:52:11.001Z,-3.70
2023-01-23T02:54:40.375Z,-3.70
2023-01-23T02:57:09.216Z,-3.70
2023-01-23T02:59:55.236Z,-3.70
2023-01-23T03:02:25.378Z,-3.70
2023-01-23T03:04:53.565Z,-3.70
2023-01-23T03:07:21.802Z,-3.60
2023-01-23T03:09:51.164Z,-3.60
2023-01-23T03:12:19.842Z,-3.70
2023-01-23T03:14:48.944Z,-3.70
2023-01-23T03:17:17.060Z,-3.70
2023-01-23T03:19:47.009Z,-3.70
2023-01-23T03:22:15.648Z,-3.80
2023-01-23T03:24:43.858Z,-3.70
2023-01-23T03:27:12.225Z,-3.80
2023-01-23T03:29:57.818Z,-3.80
2023-01-23T03:32:26.810Z,-3.80
2023-01-23T03:34:56.413Z,-3.80
2023-01-23T03:37:24.830Z,-3.90
2023-01-23T03:40:10.571Z,-3.80
2023-01-23T03:42:39.147Z,-3.90
2023-01-23T03:45:08.953Z,-3.90
2023-01-23T03:47:37.222Z,-3.80
2023-01-23T03:50:08.276Z,-3.80
2023-01-23T03:52:38.004Z,-3.80
2023-01-23T03:55:06.969Z,-3.90
2023-01-23T03:57:35.338Z,-3.90
2023-01-23T04:00:04.341Z,-3.80
2023-01-23T04:02:33.736Z,-3.80
2023-01-23T04:05:02.090Z,-3.80
2023-01-23T04:07:31.703Z,-3.80
2023-01-23T04:09:59.908Z,-3.80
2023-01-23T04:12:28.501Z,-3.70
2023-01-23T04:14:57.383Z,-3.70
2023-01-23T04:17:25.607Z,-3.70
2023-01-23T04:19:54.048Z,-3.80
2023-01-23T04:22:22.745Z,-3.80
2023-01-23T04:24:52.407Z,-3.80
2023-01-23T04:27:20.969Z,-3.80
2023-01-23T04:29:49.768Z,-3.90
2023-01-23T04:32:17.975Z,-3.90
2023-01-23T04:34:46.466Z,-4.00
2023-01-23T04:37:14.777Z,-4.00
2023-01-23T04:39:42.921Z,-4.00
2023-01-23T04:42:12.525Z,-4.00
2023-01-23T04:44:41.162Z,-3.90
2023-01-23T04:47:10.602Z,-3.90
2023-01-23T04:49:39.259Z,-3.90
2023-01-23T04:52:07.885Z,-3.90
2023-01-23T04:54:36.258Z,-3.80
2023-01-23T04:57:04.794Z,-3.80
2023-01-23T04:59:34.738Z,-3.80
2023-01-23T05:02:03.445Z,-3.90
2023-01-23T05:04:32.026Z,-3.90
2023-01-23T05:07:00.320Z,-3.90
2023-01-23T05:09:28.529Z,-3.90
2023-01-23T05:11:56.760Z,-3.90
2023-01-23T05:14:25.444Z,-3.90
2023-01-23T05:16:55.115Z,-3.90
2023-01-23T05:19:23.751Z,-3.90
2023-01-23T05:21:51.990Z,-3.90
2023-01-23T05:24:20.297Z,-3.90
2023-01-23T05:26:48.518Z,-3.90
2023-01-23T05:29:17.124Z,-4.00
2023-01-23T05:31:45.305Z,-4.00
2023-01-23T05:34:15.254Z,-4.00
2023-01-23T05:36:43.850Z,-4.00
2023-01-23T05:39:12.055Z,-4.00
2023-01-23T05:41:40.269Z,-4.00
2023-01-23T05:44:08.975Z,-4.00
2023-01-23T05:46:37.147Z,-4.00
2023-01-23T05:49:05.494Z,-3.90
2023-01-23T05:51:35.527Z,-4.00
2023-01-23T05:54:04.669Z,-4.00
2023-01-23T05:56:32.883Z,-4.00
2023-01-23T05:59:01.563Z,-4.10
2023-01-23T06:01:29.692Z,-4.10
2023-01-23T06:03:58.305Z,-4.10
2023-01-23T06:06:26.922Z,-4.20
2023-01-23T06:08:56.410Z,-4.20
2023-01-23T06:11:24.877Z,-4.20
2023-01-23T06:13:53.590Z,-4.20
2023-01-23T06:16:21.843Z,-4.20
2023-01-23T06:18:50.354Z,-4.20
2023-01-23T06:21:18.912Z,-4.20
2023-01-23T06:23:47.530Z,-4.20
2023-01-23T06:26:17.214Z,-4.10
2023-01-23T06:28:45.869Z,-4.10
2023-01-23T06:31:14.137Z,-4.10
2023-01-23T06:33:42.710Z,-4.10
2023-01-23T06:36:11.758Z,-4.10
2023-01-23T06:38:40.016Z,-4.20
2023-01-23T06:41:10.166Z,-4.20
2023-01-23T06:43:40.173Z,-4.20
2023-01-23T06:46:11.332Z,-4.20
2023-01-23T06:48:40.066Z,-4.20
2023-01-23T06:51:08.290Z,-4.30
2023-01-23T06:53:37.112Z,-4.40
2023-01-23T06:56:07.586Z,-4.40
2023-01-23T06:58:39.203Z,-4.40
2023-01-23T07:01:15.823Z,-4.40
2023-01-23T07:03:45.421Z,-4.40
2023-01-23T07:06:14.500Z,-4.40
2023-01-23T07:08:44.228Z,-4.40
2023-01-23T07:11:12.998Z,-4.50
2023-01-23T07:13:41.408Z,-4.50
2023-01-23T07:16:11.269Z,-4.50
2023-01-23T07:18:39.944Z,-4.50
2023-01-23T07:21:08.330Z,-4.40
2023-01-23T07:23:36.625Z,-4.40
2023-01-23T07:26:10.089Z,-4.40
2023-01-23T07:28:38.833Z,-4.30
2023-01-23T07:31:07.440Z,-4.40
2023-01-23T07:33:37.216Z,-4.40
2023-01-23T07:36:07.171Z,-4.40
2023-01-23T07:38:36.077Z,-4.40
2023-01-23T07:41:04.310Z,-4.40
2023-01-23T07:43:32.436Z,-4.40
2023-01-23T07:46:00.980Z,-4.50
2023-01-23T07:48:29.787Z,-4.50
2023-01-23T07:51:03.429Z,-4.50
2023-01-23T07:53:31.779Z,-4.60
2023-01-23T07:56:00.119Z,-4.60
2023-01-23T07:58:28.231Z,-4.60
2023-01-23T08:00:56.799Z,-4.50
2023-01-23T08:03:28.907Z,-4.60
2023-01-23T08:06:00.315Z,-4.60
2023-01-23T08:08:28.655Z,-4.50
2023-01-23T08:10:56.893Z,-4.50
2023-01-23T08:13:25.118Z,-4.40
2023-01-23T08:15:54.496Z,-4.40
2023-01-23T08:18:22.794Z,-4.40
2023-01-23T08:20:59.759Z,-4.40
2023-01-23T08:23:28.919Z,-4.40
2023-01-23T08:25:58.197Z,-4.50
2023-01-23T08:28:27.378Z,-4.60
2023-01-23T08:30:56.622Z,-4.60
2023-01-23T08:33:24.993Z,-4.50
2023-01-23T08:35:55.297Z,-4.60
2023-01-23T08:38:25.743Z,-4.60
2023-01-23T08:40:56.661Z,-4.60
2023-01-23T08:43:24.882Z,-4.50
2023-01-23T08:45:55.434Z,-4.50
2023-01-23T08:48:25.462Z,-4.50
2023-01-23T08:51:00.077Z,-4.60
2023-01-23T08:53:30.407Z,-4.60
2023-01-23T08:56:01.383Z,-4.60
2023-01-23T08:58:29.805Z,-4.60
2023-01-23T09:00:58.145Z,-4.60
2023-01-23T09:03:26.755Z,-4.60
2023-01-23T09:05:54.929Z,-4.60
2023-01-23T09:08:23.498Z,-4.60
2023-01-23T09:10:53.018Z,-4.70
2023-01-23T09:13:21.808Z,-4.80
2023-01-23T09:15:50.149Z,-4.70
2023-01-23T09:18:18.522Z,-4.70
2023-01-23T09:20:47.115Z,-4.70
2023-01-23T09:23:15.267Z,-4.70
2023-01-23T09:25:43.471Z,-4.70
2023-01-23T09:28:13.981Z,-4.60
2023-01-23T09:30:42.359Z,-4.60
2023-01-23T09:33:10.497Z,-4.50
2023-01-23T09:35:39.093Z,-4.50
2023-01-23T09:38:08.025Z,-4.50
2023-01-23T09:40:39.154Z,-4.40
2023-01-23T09:43:23.184Z,-4.30
2023-01-23T09:46:00.054Z,-4.20
2023-01-23T09:48:32.085Z,-4.20
2023-01-23T09:51:05.141Z,-4.20
2023-01-23T09:53:38.458Z,-4.10
2023-01-23T09:56:18.830Z,-4.10
2023-01-23T09:59:00.064Z,-4.00
2023-01-23T10:01:31.211Z,-4.00
2023-01-23T10:04:00.746Z,-3.90
2023-01-23T10:06:32.158Z,-3.80
2023-01-23T10:09:30.631Z,-3.90
2023-01-23T10:12:07.879Z,-3.90
2023-01-23T10:15:02.577Z,-3.80
2023-01-23T10:17:40.597Z,-3.90
2023-01-23T10:20:30.340Z,-3.80
2023-01-23T10:23:11.038Z,-3.70
2023-01-23T10:25:42.518Z,-3.60
2023-01-23T10:28:23.439Z,-3.60
2023-01-23T10:30:59.838Z,-3.50
2023-01-23T10:33:36.251Z,-3.40
2023-01-23T10:36:12.516Z,-3.30
2023-01-23T10:38:49.682Z,-3.30
2023-01-23T10:41:22.383Z,-3.30
2023-01-23T10:43:54.170Z,-3.40
2023-01-23T10:46:29.533Z,-3.50
2023-01-23T10:48:58.226Z,-3.50
2023-01-23T10:51:36.131Z,-3.50
2023-01-23T10:54:29.578Z,-3.40
2023-01-23T10:57:01.171Z,-3.40
2023-01-23T10:59:35.593Z,-3.40
2023-01-23T11:02:20.490Z,-3.40
2023-01-23T11:04:51.859Z,-3.40
2023-01-23T11:07:23.118Z,-3.30
2023-01-23T11:09:55.577Z,-3.30
2023-01-23T11:12:26.086Z,-3.30
2023-01-23T11:15:13.830Z,-3.30
2023-01-23T11:17:43.526Z,-3.30
2023-01-23T11:20:28.649Z,-3.20
2023-01-23T11:23:06.150Z,-3.20
2023-01-23T11:25:37.652Z,-3.20
2023-01-23T11:28:23.442Z,-3.10
2023-01-23T11:31:03.789Z,-3.10
2023-01-23T11:33:47.816Z,-3.10
2023-01-23T11:36:37.859Z,-3.00
2023-01-23T11:39:16.905Z,-3.00
2023-01-23T11:41:46.831Z,-3.00
2023-01-23T11:44:20.102Z,-3.00
2023-01-23T11:47:04.355Z,-3.00
2023-01-23T11:50:00.506Z,-3.00
2023-01-23T11:52:41.349Z,-2.90
2023-01-23T11:55:40.770Z,-2.90
2023-01-23T11:58:22.473Z,-2.90
2023-01-23T12:00:58.704Z,-2.90
2023-01-23T12:03:56.617Z,-2.90
2023-01-23T12:06:52.541Z,-2.90
2023-01-23T12:09:22.760Z,-2.90
2023-01-23T12:12:05.312Z,-2.80
2023-01-23T12:14:44.250Z,-2.80
2023-01-23T12:17:25.299Z,-2.70
2023-01-23T12:20:23.317Z,-2.80
2023-01-23T12:23:07.346Z,-2.80
2023-01-23T12:25:38.213Z,-2.90
2023-01-23T12:28:26.446Z,-2.90
2023-01-23T12:31:09.273Z,-2.80
2023-01-23T12:33:57.776Z,-2.80
2023-01-23T12:36:59.455Z,-2.90
2023-01-23T12:40:11.121Z,-2.90
2023-01-23T12:42:45.794Z,-3.00
2023-01-23T12:45:21.736Z,-3.10
2023-01-23T12:48:04.155Z,-3.10
2023-01-23T12:50:40.025Z,-3.10
2023-01-23T12:53:11.516Z,-3.10
2023-01-23T12:55:47.033Z,-3.20
2023-01-23T12:58:18.746Z,-3.20
2023-01-23T13:01:00.317Z,-3.20
2023-01-23T13:03:46.555Z,-3.30
2023-01-23T13:06:29.762Z,-3.20
2023-01-23T13:09:16.994Z,-3.20
2023-01-23T13:11:57.810Z,-3.20
2023-01-23T13:15:03.428Z,-3.30
2023-01-23T13:17:37.806Z,-3.30
2023-01-23T13:20:46.843Z,-3.50
2023-01-23T13:23:29.903Z,-3.60
2023-01-23T13:26:31.434Z,-3.60
2023-01-23T13:29:03.972Z,-3.60
2023-01-23T13:31:42.478Z,-3.70
2023-01-23T13:34:38.468Z,-3.80
2023-01-23T13:37:46.578Z,-3.80
2023-01-23T13:40:17.486Z,-3.80
2023-01-23T13:42:46.049Z,-3.80
2023-01-23T13:45:30.415Z,-3.80
2023-01-23T14:21:41.095Z,-4.00
2023-01-23T14:24:23.443Z,-4.00
2023-01-23T14:26:54.189Z,-4.00
2023-01-23T14:29:24.590Z,-4.00
2023-01-23T14:31:53.730Z,-4.10
2023-01-23T14:34:25.298Z,-4.10
2023-01-23T14:36:57.888Z,-4.10
2023-01-23T14:39:30.436Z,-4.20
2023-01-23T14:42:02.605Z,-4.20
2023-01-23T14:44:37.451Z,-4.20
2023-01-23T14:47:05.987Z,-4.10
2023-01-23T14:49:38.021Z,-4.10
2023-01-23T14:52:08.383Z,-4.10
2023-01-23T14:54:37.899Z,-4.10
2023-01-23T14:57:10.294Z,-4.10
2023-01-23T14:59:40.226Z,-4.00
2023-01-23T15:02:28.413Z,-4.00
2023-01-23T15:05:18.041Z,-4.00
2023-01-23T15:07:48.630Z,-4.00
2023-01-23T15:10:19.442Z,-4.00
2023-01-23T15:12:57.101Z,-3.90
2023-01-23T15:15:27.637Z,-3.90
2023-01-23T15:17:57.730Z,-3.90
2023-01-23T15:20:38.400Z,-3.80
2023-01-23T15:23:28.449Z,-3.90
2023-01-23T15:26:33.979Z,-3.80
2023-01-23T15:29:05.314Z,-3.80
2023-01-23T15:31:35.934Z,-3.80
2023-01-23T15:34:27.418Z,-3.70
2023-01-23T15:37:05.803Z,-3.70
2023-01-23T15:39:39.311Z,-3.70
2023-01-23T15:42:29.340Z,-3.70
2023-01-23T15:45:01.341Z,-3.70
2023-01-23T15:47:31.023Z,-3.70
2023-01-23T15:50:01.653Z,-3.70
2023-01-23T15:52:32.983Z,-3.70
2023-01-23T15:55:04.652Z,-3.70
2023-01-23T15:57:32.785Z,-3.70
2023-01-23T16:00:01.639Z,-3.70
2023-01-23T16:02:33.212Z,-3.70
2023-01-23T16:05:02.705Z,-3.70
2023-01-23T16:07:35.393Z,-3.70
2023-01-23T16:10:06.399Z,-3.70
2023-01-23T16:12:38.801Z,-3.70
2023-01-23T16:15:16.071Z,-3.70
2023-01-23T16:17:44.426Z,-3.70
2023-01-23T16:20:15.686Z,-3.60
2023-01-23T16:22:46.639Z,-3.60
2023-01-23T16:25:38.263Z,-3.60
2023-01-23T16:28:14.107Z,-3.60
2023-01-23T16:30:42.872Z,-3.60
2023-01-23T16:33:11.282Z,-3.60
2023-01-23T16:35:39.761Z,-3.60
2023-01-23T16:38:19.860Z,-3.60
2023-01-23T16:40:49.573Z,-3.60
2023-01-23T16:43:18.073Z,-3.60
2023-01-23T16:45:46.420Z,-3.60
2023-01-23T16:48:26.406Z,-3.60
2023-01-23T16:51:00.038Z,-3.60
2023-01-23T16:53:32.579Z,-3.50
2023-01-23T16:56:02.831Z,-3.50
2023-01-23T16:58:35.033Z,-3.50
2023-01-23T17:01:08.636Z,-3.50
2023-01-23T17:03:41.058Z,-3.50
2023-01-23T17:06:17.506Z,-3.50
2023-01-23T17:08:47.946Z,-3.50
2023-01-23T17:11:21.238Z,-3.40
2023-01-23T17:13:54.473Z,-3.40
2023-01-23T17:16:27.751Z,-3.30
2023-01-23T17:18:58.904Z,-3.30
2023-01-23T17:21:33.055Z,-3.20
2023-01-23T17:24:03.233Z,-3.20
2023-01-23T17:26:31.492Z,-3.20
2023-01-23T17:28:59.795Z,-3.20
2023-01-23T17:31:32.805Z,-3.20
2023-01-23T17:34:03.696Z,-3.20
2023-01-23T17:36:32.046Z,-3.20
2023-01-23T17:39:02.566Z,-3.20
2023-01-23T17:41:32.340Z,-3.20
2023-01-23T17:44:01.304Z,-3.10
2023-01-23T17:46:32.728Z,-3.20
2023-01-23T17:49:01.519Z,-3.20
2023-01-23T17:51:29.633Z,-3.20
2023-01-23T17:53:59.736Z,-3.20
2023-01-23T17:56:30.537Z,-3.20
2023-01-23T17:58:58.749Z,-3.30
2023-01-23T18:01:27.517Z,-3.30
2023-01-23T18:03:56.235Z,-3.30
2023-01-23T18:06:24.362Z,-3.30
2023-01-23T18:08:52.856Z,-3.40
2023-01-23T18:11:23.449Z,-3.40
2023-01-23T18:14:08.443Z,-3.40
2023-01-23T18:16:42.430Z,-3.40
2023-01-23T18:19:18.081Z,-3.40
2023-01-23T18:21:47.540Z,-3.40
2023-01-23T18:24:23.533Z,-3.40
2023-01-23T18:26:58.310Z,-3.40
2023-01-23T18:29:44.249Z,-3.40
2023-01-23T18:32:44.774Z,-3.40
2023-01-23T18:35:26.327Z,-3.40
2023-01-23T18:38:05.594Z,-3.40
2023-01-23T18:40:39.042Z,-3.40
2023-01-23T18:43:19.956Z,-3.40
2023-01-23T18:45:50.590Z,-3.40
2023-01-23T18:48:25.371Z,-3.40
2023-01-23T18:51:08.818Z,-3.40
2023-01-23T18:53:48.041Z,-3.40
2023-01-23T18:56:27.686Z,-3.40
2023-01-23T18:59:11.609Z,-3.30
2023-01-23T19:01:50.366Z,-3.30
2023-01-23T19:04:19.594Z,-3.30
2023-01-23T19:06:48.687Z,-3.30
2023-01-23T19:09:21.212Z,-3.30
2023-01-23T19:12:25.036Z,-3.20
2023-01-23T19:15:23.764Z,-3.20
2023-01-23T19:18:02.016Z,-3.20
2023-01-23T19:20:37.224Z,-3.20
2023-01-23T19:23:18.177Z,-3.10
2023-01-23T19:25:48.203Z,-3.10
2023-01-23T19:28:17.067Z,-3.10
2023-01-23T19:30:45.775Z,-3.00
2023-01-23T19:33:18.050Z,-3.00
2023-01-23T19:35:47.712Z,-3.00
2023-01-23T19:38:16.361Z,-3.00
2023-01-23T19:40:45.351Z,-2.90
2023-01-23T19:43:15.830Z,-2.90
2023-01-23T19:45:44.825Z,-2.90
2023-01-23T19:48:14.156Z,-2.80
2023-01-23T19:50:44.506Z,-2.80
2023-01-23T19:53:14.840Z,-2.70
2023-01-23T19:55:43.514Z,-2.70
2023-01-23T19:58:11.699Z,-2.70
2023-01-23T20:00:39.912Z,-2.60
2023-01-23T20:03:13.843Z,-2.60
2023-01-23T20:05:43.883Z,-2.60
2023-01-23T20:08:12.049Z,-2.60
2023-01-23T20:10:40.249Z,-2.50
2023-01-23T20:13:12.034Z,-2.50
2023-01-23T20:15:40.811Z,-2.40
2023-01-23T20:18:10.408Z,-2.40
2023-01-23T20:20:38.533Z,-2.40
2023-01-23T20:23:08.063Z,-2.30
2023-01-23T20:25:36.569Z,-2.30
2023-01-23T20:28:05.008Z,-2.30
2023-01-23T20:30:33.313Z,-2.20
2023-01-23T20:33:01.755Z,-2.20
2023-01-23T20:35:30.422Z,-2.20
2023-01-23T20:37:58.552Z,-2.20
2023-01-23T20:40:28.262Z,-2.20
2023-01-23T20:42:56.442Z,-2.10
2023-01-23T20:45:26.684Z,-2.10
2023-01-23T20:47:57.969Z,-2.10
2023-01-23T20:50:26.243Z,-2.10
2023-01-23T20:53:20.194Z,-2.00
2023-01-23T20:55:55.213Z,-2.00
2023-01-23T20:58:40.989Z,-2.00
2023-01-23T21:01:09.657Z,-2.00
2023-01-23T21:03:38.333Z,-2.00
2023-01-23T21:06:06.950Z,-1.90
2023-01-23T21:08:35.627Z,-1.90
2023-01-23T21:11:07.761Z,-1.90
2023-01-23T21:13:36.727Z,-1.90
2023-01-23T21:16:07.298Z,-1.90
2023-01-23T21:18:37.154Z,-1.90
2023-01-23T21:21:07.660Z,-1.90
2023-01-23T21:23:36.890Z,-1.90
2023-01-23T21:26:07.255Z,-1.90
2023-01-23T21:28:38.371Z,-1.80
2023-01-23T21:31:11.329Z,-1.80
2023-01-23T21:33:43.988Z,-1.80
2023-01-23T21:36:14.214Z,-1.80
2023-01-23T21:38:43.167Z,-1.70
2023-01-23T21:41:13.435Z,-1.80
2023-01-23T21:43:42.055Z,-1.70
2023-01-23T21:46:10.345Z,-1.70
2023-01-23T21:48:39.431Z,-1.60
2023-01-23T21:51:10.595Z,-1.60
2023-01-23T21:53:40.152Z,-1.60
2023-01-23T21:56:10.190Z,-1.60
2023-01-23T21:58:39.892Z,-1.60
2023-01-23T22:01:29.461Z,-1.60
2023-01-23T22:03:57.784Z,-1.50
2023-01-23T22:06:26.146Z,-1.50
2023-01-23T22:08:54.605Z,-1.50
2023-01-23T22:11:22.831Z,-1.40
2023-01-23T22:13:52.636Z,-1.40
2023-01-23T22:16:28.499Z,-1.40
2023-01-23T22:19:08.746Z,-1.40
2023-01-23T22:21:36.961Z,-1.40
2023-01-23T22:24:05.580Z,-1.40
2023-01-23T22:26:33.750Z,-1.40
2023-01-23T22:29:03.380Z,-1.30
2023-01-23T22:31:31.708Z,-1.30
2023-01-23T22:34:00.000Z,-1.20
2023-01-23T22:36:28.270Z,-1.20
2023-01-23T22:38:56.815Z,-1.20
2023-01-23T22:41:26.324Z,-1.20
2023-01-23T22:43:55.389Z,-1.10
2023-01-23T22:46:25.356Z,-1.10
2023-01-23T22:48:53.731Z,-1.10
2023-01-23T22:51:24.917Z,-1.10
2023-01-23T22:53:53.777Z,-1.00
2023-01-23T22:56:22.344Z,-1.00
2023-01-23T22:58:51.885Z,-1.00
2023-01-23T23:01:23.095Z,-1.00
2023-01-23T23:03:53.104Z,-0.90
2023-01-23T23:06:21.699Z,-0.90
2023-01-23T23:08:51.923Z,-0.90
2023-01-23T23:11:22.716Z,-0.90
2023-01-23T23:13:51.273Z,-0.80
2023-01-23T23:16:22.631Z,-0.80
2023-01-23T23:18:53.991Z,-0.80
2023-01-23T23:21:25.240Z,-0.80
2023-01-23T23:23:56.837Z,-0.70
2023-01-23T23:26:26.497Z,-0.70
2023-01-23T23:28:54.690Z,-0.70
2023-01-23T23:31:23.293Z,-0.70
2023-01-23T23:33:53.151Z,-0.60
2023-01-23T23:36:21.632Z,-0.60
2023-01-23T23:38:50.008Z,-0.60
2023-01-23T23:41:19.447Z,-0.60
2023-01-23T23:43:47.750Z,-0.60
2023-01-23T23:46:16.569Z,-0.60
2023-01-23T23:48:46.214Z,-0.60
2023-01-23T23:51:19.115Z,-0.50
2023-01-23T23:53:49.191Z,-0.50
2023-01-23T23:56:22.079Z,-0.50
2023-01-23T23:58:51.170Z,-0.50
